Search for airport 
image banner adimage banner ad
image banner ad

VOMM - Chennai

Located in Chennai, India

ICAO - VOMM, IATA - MAA

Data provided by Airmate  

General information

Coordinates: N12°59'42" E80°10'32"
Elevation is 52 feet MSL.
 
Rated:
View ratings:
[VIEW]
View others Airports in Tamil Nadu

Operational data

Open for public use
Current time UTC:
Current local time:
Weather
METAR: VOMM 280100Z 05004KT 3000 BR SCT020 SCT100 26/23 Q1010 NOSIG
TAF: TAF VOMM 272300Z 2800/2906 VRB02KT 1500 BR SCT020 BKN080 BECMG 2803/2804 05010KT 4000 BR BECMG 2806/2807 6000 BECMG 2815/2816 VRB02KT 4000 BR BECMG 2821/2822 1500 BR BECMG 2903/2904 05010KT 4000 BR
View NOTAMs / SUP AIP / TFR affecting this airport [VIEW]
Communications frequencies: [VIEW]

Runways:

RWY identifierQFULength (ft)Width (ft)SurfaceLDA (ft)
0769°12001148ASP
25249°12001148
12118°9482148
30298°9482148

Airport contact information

Address: Chennai India

Satellite view of VOMM